createdAt,value
2023-05-19T00:01:01.677Z,12.53
2023-05-19T00:03:31.277Z,12.53
2023-05-19T00:06:01.055Z,12.46
2023-05-19T00:08:32.264Z,12.50
2023-05-19T00:11:00.843Z,12.49
2023-05-19T00:13:31.051Z,12.51
2023-05-19T00:15:59.473Z,12.46
2023-05-19T00:18:29.894Z,12.47
2023-05-19T00:20:57.861Z,12.49
2023-05-19T00:23:25.960Z,12.54
2023-05-19T00:25:54.047Z,12.54
2023-05-19T00:28:22.072Z,12.51
2023-05-19T00:30:51.873Z,12.45
2023-05-19T00:33:19.798Z,12.41
2023-05-19T00:35:47.749Z,12.38
2023-05-19T00:38:15.657Z,12.29
2023-05-19T00:40:43.597Z,12.25
2023-05-19T00:43:11.474Z,12.23
2023-05-19T00:45:39.504Z,12.22
2023-05-19T00:48:08.824Z,12.14
2023-05-19T00:50:36.834Z,12.26
2023-05-19T00:53:05.093Z,12.20
2023-05-19T00:55:35.558Z,12.17
2023-05-19T00:58:05.498Z,12.03
2023-05-19T01:00:33.875Z,12.13
2023-05-19T01:03:03.078Z,12.17
2023-05-19T01:05:32.539Z,12.20
2023-05-19T01:08:00.684Z,12.29
2023-05-19T01:10:28.598Z,12.32
2023-05-19T01:12:56.577Z,12.28
2023-05-19T01:15:28.038Z,12.25
2023-05-19T01:18:07.345Z,12.31
2023-05-19T01:20:42.773Z,12.33
2023-05-19T01:23:29.306Z,12.38
2023-05-19T01:26:12.823Z,12.31
2023-05-19T01:29:09.642Z,12.33
2023-05-19T01:31:43.156Z,12.32
2023-05-19T01:34:14.142Z,12.31
2023-05-19T01:36:44.842Z,12.35
2023-05-19T01:39:15.223Z,12.35
2023-05-19T01:41:46.703Z,12.34
2023-05-19T01:44:16.016Z,12.29
2023-05-19T01:46:47.156Z,12.38
2023-05-19T01:49:15.386Z,12.40
2023-05-19T01:51:45.404Z,12.39
2023-05-19T01:54:13.350Z,12.40
2023-05-19T01:56:47.649Z,12.35
2023-05-19T01:59:29.746Z,12.38
2023-05-19T02:02:04.793Z,12.44
2023-05-19T02:04:40.786Z,12.44
2023-05-19T02:07:16.380Z,12.38
2023-05-19T02:09:52.624Z,12.24
2023-05-19T02:12:26.872Z,12.22
2023-05-19T02:15:04.266Z,12.21
2023-05-19T02:17:37.197Z,12.20
2023-05-19T02:20:06.002Z,12.29
2023-05-19T02:22:34.162Z,12.36
2023-05-19T02:25:02.225Z,12.30
2023-05-19T02:27:30.254Z,12.26
2023-05-19T02:29:58.548Z,12.13
2023-05-19T02:32:26.485Z,12.18
2023-05-19T02:34:56.609Z,12.14
2023-05-19T02:37:25.270Z,12.16
2023-05-19T02:39:53.161Z,12.08
2023-05-19T02:42:21.339Z,12.00
2023-05-19T02:44:49.551Z,12.00
2023-05-19T02:47:17.543Z,12.07
2023-05-19T02:49:45.893Z,12.12
2023-05-19T02:52:15.123Z,12.09
2023-05-19T02:54:43.058Z,12.07
2023-05-19T02:57:11.223Z,12.02
2023-05-19T02:59:39.236Z,11.88
2023-05-19T03:02:07.203Z,12.03
2023-05-19T03:04:42.114Z,12.06
2023-05-19T03:07:11.172Z,12.07
2023-05-19T03:09:40.724Z,12.16
2023-05-19T03:12:09.054Z,12.14
2023-05-19T03:14:38.753Z,12.19
2023-05-19T03:17:08.390Z,12.21
2023-05-19T03:19:36.503Z,12.23
2023-05-19T03:22:04.962Z,12.24
2023-05-19T03:24:34.514Z,12.29
2023-05-19T03:27:06.303Z,12.29
2023-05-19T03:29:34.606Z,12.29
2023-05-19T03:32:03.626Z,12.27
2023-05-19T03:34:32.679Z,12.24
2023-05-19T03:37:00.664Z,12.23
2023-05-19T03:39:39.557Z,12.24
2023-05-19T03:42:09.085Z,12.24
2023-05-19T03:44:37.013Z,12.22
2023-05-19T03:47:05.162Z,12.25
2023-05-19T03:50:14.854Z,12.35
2023-05-19T03:52:51.988Z,12.36
2023-05-19T03:55:30.556Z,12.32
2023-05-19T03:57:59.893Z,12.24
2023-05-19T04:00:27.790Z,12.15
2023-05-19T04:02:55.999Z,12.06
2023-05-19T04:05:24.138Z,12.01
2023-05-19T04:07:52.042Z,12.03
2023-05-19T04:10:20.685Z,12.09
2023-05-19T04:12:48.794Z,12.10
2023-05-19T04:15:18.738Z,12.14
2023-05-19T04:17:47.013Z,12.11
2023-05-19T04:20:14.903Z,12.13
2023-05-19T04:22:42.806Z,12.23
2023-05-19T04:25:11.075Z,12.28
2023-05-19T04:27:39.707Z,12.30
2023-05-19T04:30:09.141Z,12.29
2023-05-19T04:32:39.555Z,12.30
2023-05-19T04:35:08.163Z,12.30
2023-05-19T04:37:37.597Z,12.39
2023-05-19T04:40:11.110Z,12.43
2023-05-19T04:42:42.640Z,12.43
2023-05-19T04:45:12.679Z,12.36
2023-05-19T04:47:46.879Z,12.25
2023-05-19T04:50:16.456Z,12.20
2023-05-19T04:56:52.099Z,12.25
2023-05-19T04:59:21.088Z,12.32
2023-05-19T05:01:49.258Z,12.34
2023-05-19T05:04:21.586Z,12.41
2023-05-19T05:06:49.807Z,12.48
2023-05-19T05:09:19.991Z,12.53
2023-05-19T05:11:48.615Z,12.55
2023-05-19T05:14:17.025Z,12.53
2023-05-19T05:16:45.746Z,12.43
2023-05-19T05:19:17.914Z,12.36
2023-05-19T05:21:48.034Z,12.39
2023-05-19T05:24:18.039Z,12.32
2023-05-19T05:26:52.440Z,12.25
2023-05-19T05:29:21.063Z,12.22
2023-05-19T05:31:49.189Z,12.26
2023-05-19T05:34:18.029Z,12.25
2023-05-19T05:36:47.447Z,12.28
2023-05-19T05:39:16.059Z,12.32
2023-05-19T05:41:45.761Z,12.33
2023-05-19T05:44:14.137Z,12.32
2023-05-19T05:46:45.174Z,12.33
2023-05-19T05:49:13.687Z,12.28
2023-05-19T05:51:51.372Z,12.34
2023-05-19T05:54:36.430Z,12.36
2023-05-19T05:57:05.731Z,12.38
2023-05-19T05:59:34.834Z,12.44
2023-05-19T06:02:03.035Z,12.55
2023-05-19T06:04:31.195Z,12.54
2023-05-19T06:07:01.643Z,12.53
2023-05-19T06:09:34.911Z,12.58
2023-05-19T06:12:04.191Z,12.60
2023-05-19T06:14:37.167Z,12.68
2023-05-19T06:17:19.618Z,12.68
2023-05-19T06:19:47.532Z,12.65
2023-05-19T06:22:16.327Z,12.68
2023-05-19T06:24:46.539Z,12.58
2023-05-19T06:27:15.199Z,12.57
2023-05-19T06:29:43.182Z,12.56
2023-05-19T06:32:11.340Z,12.61
2023-05-19T06:34:41.552Z,12.66
2023-05-19T06:37:10.236Z,12.71
2023-05-19T06:39:39.242Z,12.79
2023-05-19T06:42:08.737Z,12.82
2023-05-19T06:44:56.856Z,12.97
2023-05-19T06:47:25.288Z,13.12
2023-05-19T06:49:55.352Z,13.34
2023-05-19T06:52:26.854Z,13.52
2023-05-19T06:54:55.573Z,13.75
2023-05-19T06:57:24.944Z,13.89
2023-05-19T06:59:52.937Z,14.14
2023-05-19T07:02:20.849Z,14.15
2023-05-19T07:04:49.208Z,14.24
2023-05-19T07:07:18.169Z,14.36
2023-05-19T07:09:46.256Z,14.46
2023-05-19T07:12:14.623Z,14.46
2023-05-19T07:14:44.036Z,14.36
2023-05-19T07:17:13.148Z,14.35
2023-05-19T07:19:45.023Z,14.45
2023-05-19T07:22:13.030Z,14.53
2023-05-19T07:24:41.031Z,14.60
2023-05-19T07:27:09.132Z,14.78
2023-05-19T07:29:38.014Z,14.95
2023-05-19T07:32:08.150Z,15.04
2023-05-19T07:34:36.770Z,15.18
2023-05-19T07:37:04.886Z,15.30
2023-05-19T07:39:32.859Z,15.40
2023-05-19T07:42:00.888Z,15.60
2023-05-19T07:44:31.306Z,15.82
2023-05-19T07:46:59.297Z,15.94
2023-05-19T07:49:29.563Z,16.00
2023-05-19T07:51:58.333Z,16.03
2023-05-19T07:54:26.477Z,16.10
2023-05-19T07:56:54.444Z,16.10
2023-05-19T07:59:22.398Z,16.05
2023-05-19T08:01:50.653Z,16.09
2023-05-19T08:04:18.801Z,16.06
2023-05-19T08:06:48.149Z,16.09
2023-05-19T08:09:16.077Z,16.06
2023-05-19T08:11:44.811Z,15.99
2023-05-19T08:14:12.778Z,15.98
2023-05-19T08:16:42.257Z,15.94
2023-05-19T08:19:10.434Z,15.88
2023-05-19T08:21:38.375Z,15.87
2023-05-19T08:24:07.945Z,15.87
2023-05-19T08:26:37.745Z,15.87
2023-05-19T08:29:06.177Z,15.92
2023-05-19T08:31:34.728Z,15.97
2023-05-19T08:34:03.543Z,16.08
2023-05-19T08:36:31.537Z,16.18
2023-05-19T08:38:59.479Z,16.15
2023-05-19T08:41:28.761Z,16.14
2023-05-19T08:43:56.769Z,16.17
2023-05-19T08:46:26.516Z,16.10
2023-05-19T08:48:59.838Z,16.13
2023-05-19T08:51:34.634Z,16.16
2023-05-19T08:54:13.922Z,16.32
2023-05-19T08:56:44.440Z,16.48
2023-05-19T08:59:14.166Z,16.49
2023-05-19T09:01:45.789Z,16.73
2023-05-19T09:04:14.472Z,16.95
2023-05-19T09:06:45.111Z,17.07
2023-05-19T09:09:13.195Z,17.30
2023-05-19T09:11:41.086Z,17.37
2023-05-19T09:14:10.646Z,17.50
2023-05-19T09:16:39.202Z,17.65
2023-05-19T09:19:08.646Z,17.73
2023-05-19T09:21:37.297Z,17.87
2023-05-19T09:24:06.188Z,18.08
2023-05-19T09:26:38.592Z,18.24
2023-05-19T09:29:14.834Z,18.39
2023-05-19T09:31:50.302Z,18.41
2023-05-19T09:34:18.332Z,18.62
2023-05-19T09:36:49.410Z,18.71
2023-05-19T09:39:18.186Z,18.84
2023-05-19T09:41:46.500Z,18.86
2023-05-19T09:44:23.335Z,18.82
2023-05-19T09:46:52.783Z,18.80
2023-05-19T09:49:22.593Z,18.79
2023-05-19T09:51:52.382Z,18.85
2023-05-19T09:54:21.457Z,18.83
2023-05-19T09:56:53.103Z,18.88
2023-05-19T09:59:25.615Z,18.90
2023-05-19T10:01:56.499Z,18.95
2023-05-19T10:04:26.826Z,18.95
2023-05-19T10:06:55.754Z,18.93
2023-05-19T10:09:25.825Z,18.88
2023-05-19T10:11:54.598Z,18.84
2023-05-19T10:14:26.134Z,18.79
2023-05-19T10:16:55.186Z,18.85
2023-05-19T10:19:24.860Z,19.01
2023-05-19T10:21:53.486Z,19.16
2023-05-19T10:24:21.863Z,19.25
2023-05-19T10:26:54.506Z,19.32
2023-05-19T10:29:29.270Z,19.41
2023-05-19T10:32:00.618Z,19.50
2023-05-19T10:34:50.285Z,19.61
2023-05-19T10:37:28.968Z,19.68
2023-05-19T10:39:58.804Z,19.80
2023-05-19T10:42:37.277Z,19.85
2023-05-19T10:45:15.300Z,19.97
2023-05-19T10:47:43.510Z,19.95
2023-05-19T10:50:12.177Z,20.09
2023-05-19T10:52:41.140Z,20.22
2023-05-19T10:55:10.283Z,20.34
2023-05-19T10:57:38.288Z,20.44
2023-05-19T11:00:29.184Z,20.54
2023-05-19T11:03:13.935Z,20.64
2023-05-19T11:05:45.205Z,20.74
2023-05-19T11:08:14.185Z,20.76
2023-05-19T11:10:45.936Z,20.78
2023-05-19T11:13:22.668Z,20.82
2023-05-19T11:15:53.163Z,20.85
2023-05-19T11:18:21.740Z,20.82
2023-05-19T11:20:59.012Z,20.83
2023-05-19T11:23:27.171Z,20.81
2023-05-19T11:25:55.121Z,20.79
2023-05-19T11:28:26.092Z,20.81
2023-05-19T11:30:59.072Z,20.83
2023-05-19T11:33:28.028Z,20.89
2023-05-19T11:35:58.920Z,20.96
2023-05-19T11:38:30.162Z,21.06
2023-05-19T11:40:58.304Z,21.09
2023-05-19T11:43:26.767Z,20.97
2023-05-19T11:45:56.881Z,21.12
2023-05-19T11:48:25.972Z,21.16
2023-05-19T11:50:54.208Z,21.04
2023-05-19T11:53:22.339Z,21.24
2023-05-19T11:55:50.448Z,21.42
2023-05-19T11:58:18.705Z,21.46
2023-05-19T12:00:48.061Z,21.53
2023-05-19T12:03:22.255Z,21.38
2023-05-19T12:05:50.710Z,21.36
2023-05-19T12:08:19.469Z,21.37
2023-05-19T12:10:50.397Z,21.38
2023-05-19T12:13:18.385Z,21.50
2023-05-19T12:15:46.410Z,21.64
2023-05-19T12:18:14.878Z,21.77
2023-05-19T12:20:44.300Z,21.82
2023-05-19T12:23:12.819Z,21.90
2023-05-19T12:25:40.961Z,21.87
2023-05-19T12:28:08.917Z,21.87
2023-05-19T12:30:37.156Z,21.80
2023-05-19T12:33:05.817Z,21.73
2023-05-19T12:35:34.412Z,21.48
2023-05-19T12:38:08.268Z,21.35
2023-05-19T12:40:37.890Z,21.29
2023-05-19T12:43:06.793Z,21.19
2023-05-19T12:45:36.178Z,21.30
2023-05-19T12:48:06.516Z,21.45
2023-05-19T12:50:35.306Z,21.45
2023-05-19T12:53:03.482Z,21.40
2023-05-19T12:55:39.367Z,21.40
2023-05-19T12:58:08.683Z,21.37
2023-05-19T13:00:42.165Z,21.20
2023-05-19T13:03:16.762Z,21.22
2023-05-19T13:05:46.749Z,21.25
2023-05-19T13:08:16.498Z,21.33
2023-05-19T13:10:46.959Z,21.44
2023-05-19T13:13:15.104Z,21.35
2023-05-19T13:15:44.950Z,21.31
2023-05-19T13:18:14.361Z,21.41
2023-05-19T13:20:44.443Z,21.49
2023-05-19T13:23:13.403Z,21.35
2023-05-19T13:25:42.097Z,21.49
2023-05-19T13:28:12.028Z,21.51
2023-05-19T13:30:41.272Z,21.62
2023-05-19T13:33:09.504Z,21.69
2023-05-19T13:35:38.241Z,22.05
2023-05-19T13:38:06.760Z,22.24
2023-05-19T13:40:35.845Z,22.40
2023-05-19T13:43:04.153Z,22.53
2023-05-19T13:45:33.490Z,22.58
2023-05-19T13:48:01.527Z,22.56
2023-05-19T13:50:29.640Z,22.60
2023-05-19T13:52:57.637Z,22.75
2023-05-19T13:55:27.265Z,22.78
2023-05-19T13:57:55.301Z,23.01
2023-05-19T14:00:23.952Z,23.11
2023-05-19T14:02:53.772Z,23.10
2023-05-19T14:05:21.737Z,23.19
2023-05-19T14:07:49.658Z,23.32
2023-05-19T14:10:17.711Z,23.43
2023-05-19T14:13:14.080Z,23.62
2023-05-19T14:15:37.661Z,23.89
2023-05-19T14:18:07.475Z,24.13
2023-05-19T14:20:35.779Z,24.32
2023-05-19T14:23:04.058Z,24.40
2023-05-19T14:25:32.008Z,24.40
2023-05-19T14:27:59.964Z,24.47
2023-05-19T14:30:27.975Z,24.44
2023-05-19T14:32:57.163Z,24.42
2023-05-19T14:35:26.729Z,24.49
2023-05-19T14:37:54.656Z,24.47
2023-05-19T14:40:22.555Z,24.57
2023-05-19T14:42:50.446Z,24.72
2023-05-19T14:45:18.564Z,24.64
2023-05-19T14:47:47.732Z,24.57
2023-05-19T14:50:16.062Z,24.82
2023-05-19T14:52:45.364Z,25.01
2023-05-19T14:55:13.300Z,24.84
2023-05-19T14:57:41.186Z,24.81
2023-05-19T15:00:10.361Z,24.91
2023-05-19T15:02:38.421Z,25.06
2023-05-19T15:05:06.870Z,25.23
2023-05-19T15:07:34.834Z,25.35
2023-05-19T15:10:04.239Z,25.28
2023-05-19T15:12:32.142Z,25.24
2023-05-19T15:15:00.214Z,25.24
2023-05-19T15:17:28.099Z,25.31
2023-05-19T15:19:56.132Z,25.41
2023-05-19T15:22:24.113Z,25.44
2023-05-19T15:24:52.094Z,25.43
2023-05-19T15:27:21.800Z,25.30
2023-05-19T15:29:49.863Z,25.25
2023-05-19T15:32:17.788Z,25.32
2023-05-19T15:34:45.732Z,25.41
2023-05-19T15:37:13.653Z,25.58
2023-05-19T15:39:41.555Z,25.48
2023-05-19T15:42:09.514Z,25.52
2023-05-19T15:44:38.920Z,25.55
2023-05-19T15:47:06.886Z,25.49
2023-05-19T15:49:34.843Z,25.60
2023-05-19T15:52:03.016Z,25.69
2023-05-19T15:54:30.980Z,25.74
2023-05-19T15:56:58.888Z,25.73
2023-05-19T15:59:26.779Z,25.85
2023-05-19T16:01:56.217Z,25.74
2023-05-19T16:04:24.154Z,25.71
2023-05-19T16:06:52.064Z,25.76
2023-05-19T16:09:20.297Z,25.72
2023-05-19T16:11:48.228Z,25.54
2023-05-19T16:14:16.169Z,25.32
2023-05-19T16:16:44.607Z,25.38
2023-05-19T16:19:14.083Z,25.52
2023-05-19T16:21:42.155Z,25.63
2023-05-19T16:24:10.236Z,25.64
2023-05-19T16:26:38.152Z,25.73
2023-05-19T16:29:06.210Z,25.76
2023-05-19T16:31:34.120Z,25.71
2023-05-19T16:34:02.079Z,25.65
2023-05-19T16:36:31.852Z,25.62
2023-05-19T16:38:59.867Z,25.57
2023-05-19T16:41:27.793Z,25.64
2023-05-19T16:43:55.727Z,25.60
2023-05-19T16:46:23.736Z,25.27
2023-05-19T16:48:51.865Z,25.17
2023-05-19T16:51:19.734Z,25.02
2023-05-19T16:53:48.973Z,24.64
2023-05-19T16:56:16.834Z,24.64
2023-05-19T16:58:44.748Z,24.55
2023-05-19T17:01:12.650Z,24.46
2023-05-19T17:03:40.653Z,24.33
2023-05-19T17:06:08.631Z,24.03
2023-05-19T17:08:36.634Z,23.85
2023-05-19T17:11:06.543Z,23.71
2023-05-19T17:13:36.269Z,23.60
2023-05-19T17:16:04.325Z,23.38
2023-05-19T17:18:32.337Z,23.06
2023-05-19T17:21:03.443Z,22.98
2023-05-19T17:23:31.725Z,22.96
2023-05-19T17:25:59.695Z,22.92
2023-05-19T17:28:29.103Z,22.98
2023-05-19T17:30:57.144Z,22.99
2023-05-19T17:33:25.179Z,22.99
2023-05-19T17:35:53.100Z,22.95
2023-05-19T17:38:21.090Z,22.87
2023-05-19T17:40:49.036Z,22.73
2023-05-19T17:43:16.965Z,22.60
2023-05-19T17:45:46.452Z,22.32
2023-05-19T17:48:14.520Z,22.09
2023-05-19T17:50:43.641Z,21.80
2023-05-19T17:53:11.822Z,21.69
2023-05-19T17:55:40.342Z,21.59
2023-05-19T17:58:09.045Z,21.46
2023-05-19T18:00:37.569Z,21.33
2023-05-19T18:03:08.085Z,21.20
2023-05-19T18:05:37.761Z,21.01
2023-05-19T18:08:09.402Z,20.90
2023-05-19T18:10:39.217Z,20.80
2023-05-19T18:13:08.851Z,20.69
2023-05-19T18:15:37.095Z,20.62
2023-05-19T18:18:07.451Z,20.52
2023-05-19T18:20:40.867Z,20.43
2023-05-19T18:23:08.779Z,20.32
2023-05-19T18:25:36.813Z,20.28
2023-05-19T18:28:04.999Z,20.25
2023-05-19T18:30:33.107Z,20.23
2023-05-19T18:33:03.677Z,20.21
2023-05-19T18:35:31.896Z,20.14
2023-05-19T18:38:01.150Z,20.11
2023-05-19T18:40:29.133Z,20.06
2023-05-19T18:42:57.568Z,20.01
2023-05-19T18:45:25.681Z,19.93
2023-05-19T18:47:53.588Z,19.92
2023-05-19T18:50:21.695Z,19.91
2023-05-19T18:52:49.948Z,19.86
2023-05-19T18:55:19.354Z,19.82
2023-05-19T18:57:47.287Z,19.77
2023-05-19T19:00:15.920Z,19.73
2023-05-19T19:02:43.799Z,19.71
2023-05-19T19:05:13.649Z,19.66
2023-05-19T19:07:41.838Z,19.63
2023-05-19T19:10:10.273Z,19.47
2023-05-19T19:12:39.842Z,19.59
2023-05-19T19:15:16.305Z,19.55
2023-05-19T19:17:45.291Z,19.49
2023-05-19T19:20:13.943Z,19.47
2023-05-19T19:22:41.807Z,19.44
2023-05-19T19:25:10.519Z,19.46
2023-05-19T19:27:39.909Z,19.46
2023-05-19T19:30:09.434Z,19.46
2023-05-19T19:32:37.390Z,19.48
2023-05-19T19:35:06.042Z,19.47
2023-05-19T19:37:34.057Z,19.45
2023-05-19T19:40:02.060Z,19.38
2023-05-19T19:42:31.767Z,19.32
2023-05-19T19:45:02.264Z,19.27
2023-05-19T19:47:30.555Z,19.18
2023-05-19T19:49:58.998Z,19.08
2023-05-19T19:52:27.117Z,19.01
2023-05-19T19:54:55.790Z,18.95
2023-05-19T19:57:23.899Z,18.88
2023-05-19T19:59:55.037Z,18.83
2023-05-19T20:02:24.643Z,18.83
2023-05-19T20:04:52.598Z,18.77
2023-05-19T20:07:20.898Z,18.62
2023-05-19T20:09:51.583Z,18.58
2023-05-19T20:12:19.593Z,18.60
2023-05-19T20:14:48.473Z,18.49
2023-05-19T20:17:16.382Z,18.55
2023-05-19T20:19:45.851Z,18.51
2023-05-19T20:22:13.859Z,18.50
2023-05-19T20:24:41.798Z,18.46
2023-05-19T20:27:09.822Z,18.48
2023-05-19T20:29:37.719Z,18.49
2023-05-19T20:32:05.952Z,18.49
2023-05-19T20:34:33.935Z,18.47
2023-05-19T20:37:03.246Z,18.46
2023-05-19T20:39:31.238Z,18.44
2023-05-19T20:41:59.338Z,18.42
2023-05-19T20:44:27.258Z,18.41
2023-05-19T20:46:55.351Z,18.36
2023-05-19T20:49:23.248Z,18.28
2023-05-19T20:51:51.364Z,18.24
2023-05-19T20:54:20.633Z,18.21
2023-05-19T20:56:48.897Z,18.17
2023-05-19T20:59:16.856Z,18.12
2023-05-19T21:01:45.708Z,18.09
2023-05-19T21:04:13.914Z,18.04
2023-05-19T21:06:41.842Z,18.00
2023-05-19T21:09:10.651Z,17.92
2023-05-19T21:11:40.002Z,17.91
2023-05-19T21:14:09.171Z,17.82
2023-05-19T21:16:38.776Z,17.88
2023-05-19T21:19:07.365Z,17.83
2023-05-19T21:21:36.270Z,17.76
2023-05-19T21:24:04.387Z,17.71
2023-05-19T21:26:32.311Z,17.62
2023-05-19T21:29:01.590Z,17.58
2023-05-19T21:31:29.578Z,17.56
2023-05-19T21:33:58.112Z,17.53
2023-05-19T21:36:26.024Z,17.51
2023-05-19T21:38:53.972Z,17.48
2023-05-19T21:41:22.314Z,17.45
2023-05-19T21:43:50.223Z,17.41
2023-05-19T21:46:20.078Z,17.33
2023-05-19T21:48:48.112Z,17.13
2023-05-19T21:51:16.194Z,17.01
2023-05-19T21:53:44.146Z,16.88
2023-05-19T21:56:12.068Z,16.83
2023-05-19T21:58:40.549Z,16.62
2023-05-19T22:01:08.922Z,16.47
2023-05-19T22:03:38.428Z,16.35
2023-05-19T22:06:07.572Z,16.26
2023-05-19T22:08:35.536Z,16.16
2023-05-19T22:11:03.520Z,16.13
2023-05-19T22:13:32.078Z,16.13
2023-05-19T22:16:00.094Z,16.14
2023-05-19T22:18:28.048Z,16.13
2023-05-19T22:20:57.285Z,16.15
2023-05-19T22:23:25.350Z,16.28
2023-05-19T22:25:53.242Z,16.38
2023-05-19T22:28:21.135Z,16.34
2023-05-19T22:30:48.974Z,16.35
2023-05-19T22:33:17.032Z,16.31
2023-05-19T22:35:44.920Z,16.33
2023-05-19T22:38:14.210Z,16.36
2023-05-19T22:40:42.138Z,16.28
2023-05-19T22:43:10.078Z,16.26
2023-05-19T22:45:38.141Z,16.23
2023-05-19T22:48:07.066Z,16.21
2023-05-19T22:50:35.036Z,16.20
2023-05-19T22:53:02.990Z,16.17
2023-05-19T22:55:33.481Z,16.20
2023-05-19T22:58:01.673Z,16.15
2023-05-19T23:00:29.843Z,16.18
2023-05-19T23:02:58.303Z,16.10
2023-05-19T23:05:26.475Z,16.02
2023-05-19T23:07:54.459Z,16.01
2023-05-19T23:10:22.356Z,16.08
2023-05-19T23:12:51.706Z,16.21
2023-05-19T23:15:19.603Z,16.35
2023-05-19T23:17:47.649Z,16.47
2023-05-19T23:20:15.790Z,16.52
2023-05-19T23:22:43.739Z,16.53
2023-05-19T23:25:11.656Z,16.46
2023-05-19T23:27:39.573Z,16.31
2023-05-19T23:30:10.114Z,16.32
2023-05-19T23:32:38.074Z,16.22
2023-05-19T23:35:13.487Z,16.18
2023-05-19T23:37:41.919Z,16.02
2023-05-19T23:40:11.430Z,16.00
2023-05-19T23:42:39.473Z,15.93
2023-05-19T23:45:10.007Z,15.89
2023-05-19T23:47:38.158Z,15.86
2023-05-19T23:50:06.547Z,15.71
2023-05-19T23:52:34.619Z,15.68
2023-05-19T23:55:03.614Z,15.74
2023-05-19T23:57:31.579Z,15.82
